sensor_id;sensor_type;location;lat;lon;timestamp;temperature;humidity
15676;DHT22;7938;47.666;9.434;2023-06-19T04:03:09;19.20;96.10
15676;DHT22;7938;47.666;9.434;2023-06-19T04:05:36;19.10;96.30
15676;DHT22;7938;47.666;9.434;2023-06-19T04:08:04;19.20;96.30
15676;DHT22;7938;47.666;9.434;2023-06-19T04:10:31;19.40;96.10
15676;DHT22;7938;47.666;9.434;2023-06-19T04:12:58;19.30;96.30
15676;DHT22;7938;47.666;9.434;2023-06-19T04:15:25;19.40;96.30
15676;DHT22;7938;47.666;9.434;2023-06-19T04:17:52;19.60;96.30
15676;DHT22;7938;47.666;9.434;2023-06-19T04:22:47;20.00;96.20
15676;DHT22;7938;47.666;9.434;2023-06-19T04:25:14;20.10;97.10
15676;DHT22;7938;47.666;9.434;2023-06-19T04:27:41;19.90;97.80
15676;DHT22;7938;47.666;9.434;2023-06-19T04:30:11;19.70;98.10
15676;DHT22;7938;47.666;9.434;2023-06-19T04:32:38;19.60;98.50
15676;DHT22;7938;47.666;9.434;2023-06-19T04:35:06;19.60;98.90
15676;DHT22;7938;47.666;9.434;2023-06-19T04:37:35;19.60;99.30
15676;DHT22;7938;47.666;9.434;2023-06-19T04:40:02;19.50;99.90
15676;DHT22;7938;47.666;9.434;2023-06-19T04:44:57;19.30;99.90
15676;DHT22;7938;47.666;9.434;2023-06-19T04:47:25;19.30;99.90
15676;DHT22;7938;47.666;9.434;2023-06-19T04:49:52;19.30;99.90
15676;DHT22;7938;47.666;9.434;2023-06-19T04:52:19;19.40;99.90
15676;DHT22;7938;47.666;9.434;2023-06-19T04:54:47;19.40;99.90
15676;DHT22;7938;47.666;9.434;2023-06-19T04:57:14;19.40;99.90
15676;DHT22;7938;47.666;9.434;2023-06-19T04:59:42;19.50;99.90
15676;DHT22;7938;47.666;9.434;2023-06-19T05:02:09;19.60;99.90
15676;DHT22;7938;47.666;9.434;2023-06-19T05:04:36;19.70;99.90
15676;DHT22;7938;47.666;9.434;2023-06-19T05:07:03;19.90;99.90
15676;DHT22;7938;47.666;9.434;2023-06-19T05:09:31;19.80;99.90
15676;DHT22;7938;47.666;9.434;2023-06-19T05:11:59;20.00;99.90
15676;DHT22;7938;47.666;9.434;2023-06-19T05:14:26;20.10;99.90
15676;DHT22;7938;47.666;9.434;2023-06-19T05:16:53;20.20;99.90
15676;DHT22;7938;47.666;9.434;2023-06-19T05:19:20;20.30;99.90
15676;DHT22;7938;47.666;9.434;2023-06-19T05:21:47;20.30;99.90
15676;DHT22;7938;47.666;9.434;2023-06-19T05:24:14;20.30;99.90
15676;DHT22;7938;47.666;9.434;2023-06-19T05:26:41;20.40;99.90
15676;DHT22;7938;47.666;9.434;2023-06-19T05:29:09;20.50;99.50
15676;DHT22;7938;47.666;9.434;2023-06-19T05:31:36;20.40;99.90
15676;DHT22;7938;47.666;9.434;2023-06-19T05:34:03;20.40;99.90
15676;DHT22;7938;47.666;9.434;2023-06-19T05:36:30;20.40;99.90
15676;DHT22;7938;47.666;9.434;2023-06-19T05:38:57;20.20;99.90
15676;DHT22;7938;47.666;9.434;2023-06-19T05:41:24;20.10;99.90
15676;DHT22;7938;47.666;9.434;2023-06-19T05:43:51;20.00;99.90
15676;DHT22;7938;47.666;9.434;2023-06-19T05:46:19;19.90;99.90
15676;DHT22;7938;47.666;9.434;2023-06-19T05:48:46;19.90;99.90
15676;DHT22;7938;47.666;9.434;2023-06-19T05:51:14;19.90;99.90
15676;DHT22;7938;47.666;9.434;2023-06-19T05:53:41;19.80;99.90
15676;DHT22;7938;47.666;9.434;2023-06-19T05:56:08;19.80;99.90
15676;DHT22;7938;47.666;9.434;2023-06-19T05:58:35;19.90;99.90
15676;DHT22;7938;47.666;9.434;2023-06-19T06:01:02;19.90;99.90
15676;DHT22;7938;47.666;9.434;2023-06-19T06:03:30;19.90;99.90
15676;DHT22;7938;47.666;9.434;2023-06-19T06:05:57;20.00;99.90
15676;DHT22;7938;47.666;9.434;2023-06-19T06:08:28;20.10;99.90
15676;DHT22;7938;47.666;9.434;2023-06-19T06:10:55;20.10;99.90
15676;DHT22;7938;47.666;9.434;2023-06-19T06:13:22;20.20;99.90
15676;DHT22;7938;47.666;9.434;2023-06-19T06:15:49;20.20;99.90
15676;DHT22;7938;47.666;9.434;2023-06-19T06:18:16;20.30;99.90
15676;DHT22;7938;47.666;9.434;2023-06-19T06:20:44;20.30;99.90
15676;DHT22;7938;47.666;9.434;2023-06-19T06:23:11;20.50;99.90
15676;DHT22;7938;47.666;9.434;2023-06-19T06:25:38;20.40;99.90
15676;DHT22;7938;47.666;9.434;2023-06-19T06:28:05;20.20;99.90
15676;DHT22;7938;47.666;9.434;2023-06-19T06:30:32;20.20;99.90
15676;DHT22;7938;47.666;9.434;2023-06-19T06:32:59;20.10;99.90
15676;DHT22;7938;47.666;9.434;2023-06-19T06:35:26;19.90;99.90
15676;DHT22;7938;47.666;9.434;2023-06-19T06:37:55;19.60;99.90
15676;DHT22;7938;47.666;9.434;2023-06-19T06:40:22;19.50;99.90
15676;DHT22;7938;47.666;9.434;2023-06-19T06:42:49;19.50;99.90
15676;DHT22;7938;47.666;9.434;2023-06-19T06:45:16;19.40;99.90
15676;DHT22;7938;47.666;9.434;2023-06-19T06:47:43;19.30;99.90
15676;DHT22;7938;47.666;9.434;2023-06-19T06:50:10;19.30;99.90
15676;DHT22;7938;47.666;9.434;2023-06-19T06:52:37;19.20;99.90
15676;DHT22;7938;47.666;9.434;2023-06-19T06:55:06;19.20;99.90
15676;DHT22;7938;47.666;9.434;2023-06-19T06:57:33;19.10;99.90
15676;DHT22;7938;47.666;9.434;2023-06-19T07:00:00;19.10;99.90
15676;DHT22;7938;47.666;9.434;2023-06-19T07:02:29;19.10;99.90
15676;DHT22;7938;47.666;9.434;2023-06-19T07:04:55;19.20;99.90
15676;DHT22;7938;47.666;9.434;2023-06-19T07:07:22;19.00;99.90
15676;DHT22;7938;47.666;9.434;2023-06-19T07:09:49;19.00;99.90
15676;DHT22;7938;47.666;9.434;2023-06-19T07:12:17;19.10;99.90
15676;DHT22;7938;47.666;9.434;2023-06-19T07:14:44;19.20;99.90
15676;DHT22;7938;47.666;9.434;2023-06-19T07:17:11;19.40;99.90
15676;DHT22;7938;47.666;9.434;2023-06-19T07:19:38;19.40;99.90
15676;DHT22;7938;47.666;9.434;2023-06-19T07:22:05;19.50;99.90
15676;DHT22;7938;47.666;9.434;2023-06-19T07:24:32;19.80;99.90
15676;DHT22;7938;47.666;9.434;2023-06-19T07:26:59;20.40;99.90
15676;DHT22;7938;47.666;9.434;2023-06-19T07:29:28;20.40;99.90
15676;DHT22;7938;47.666;9.434;2023-06-19T07:31:55;20.70;99.90
15676;DHT22;7938;47.666;9.434;2023-06-19T07:34:22;20.90;99.90
15676;DHT22;7938;47.666;9.434;2023-06-19T07:36:50;21.20;99.90
15676;DHT22;7938;47.666;9.434;2023-06-19T07:39:17;21.40;99.90
15676;DHT22;7938;47.666;9.434;2023-06-19T07:41:44;21.50;99.90
15676;DHT22;7938;47.666;9.434;2023-06-19T07:44:12;21.50;99.90
15676;DHT22;7938;47.666;9.434;2023-06-19T07:46:40;21.60;99.90
15676;DHT22;7938;47.666;9.434;2023-06-19T07:49:07;21.70;99.90
15676;DHT22;7938;47.666;9.434;2023-06-19T07:51:33;21.70;99.90
15676;DHT22;7938;47.666;9.434;2023-06-19T07:54:00;21.80;99.90
15676;DHT22;7938;47.666;9.434;2023-06-19T07:56:27;22.00;99.90
15676;DHT22;7938;47.666;9.434;2023-06-19T07:58:54;22.10;99.90
15676;DHT22;7938;47.666;9.434;2023-06-19T08:01:21;22.20;99.90
15676;DHT22;7938;47.666;9.434;2023-06-19T08:03:49;22.30;99.90
15676;DHT22;7938;47.666;9.434;2023-06-19T08:06:16;22.20;99.90
15676;DHT22;7938;47.666;9.434;2023-06-19T08:08:43;22.20;99.90
15676;DHT22;7938;47.666;9.434;2023-06-19T08:11:11;22.10;99.90
15676;DHT22;7938;47.666;9.434;2023-06-19T08:13:38;22.10;99.30
15676;DHT22;7938;47.666;9.434;2023-06-19T08:16:05;22.30;99.60
15676;DHT22;7938;47.666;9.434;2023-06-19T08:18:32;22.30;99.50
15676;DHT22;7938;47.666;9.434;2023-06-19T08:21:00;22.50;99.90
15676;DHT22;7938;47.666;9.434;2023-06-19T08:23:27;22.50;99.90
15676;DHT22;7938;47.666;9.434;2023-06-19T08:25:55;22.50;99.90
15676;DHT22;7938;47.666;9.434;2023-06-19T08:28:22;22.40;99.40
15676;DHT22;7938;47.666;9.434;2023-06-19T08:30:49;22.50;99.60
15676;DHT22;7938;47.666;9.434;2023-06-19T08:33:17;22.60;99.80
15676;DHT22;7938;47.666;9.434;2023-06-19T08:35:44;22.90;99.90
15676;DHT22;7938;47.666;9.434;2023-06-19T08:38:14;22.60;99.70
15676;DHT22;7938;47.666;9.434;2023-06-19T08:40:41;22.60;99.50
15676;DHT22;7938;47.666;9.434;2023-06-19T08:43:08;22.60;99.50
15676;DHT22;7938;47.666;9.434;2023-06-19T08:45:35;22.60;97.90
15676;DHT22;7938;47.666;9.434;2023-06-19T08:48:03;22.60;98.50
15676;DHT22;7938;47.666;9.434;2023-06-19T08:50:31;22.60;99.30
15676;DHT22;7938;47.666;9.434;2023-06-19T08:52:58;22.80;99.30
15676;DHT22;7938;47.666;9.434;2023-06-19T08:55:26;23.00;98.70
15676;DHT22;7938;47.666;9.434;2023-06-19T08:57:53;23.20;98.70
15676;DHT22;7938;47.666;9.434;2023-06-19T09:00:24;23.30;98.30
15676;DHT22;7938;47.666;9.434;2023-06-19T09:02:52;23.40;96.10
15676;DHT22;7938;47.666;9.434;2023-06-19T09:05:19;23.40;96.40
15676;DHT22;7938;47.666;9.434;2023-06-19T09:07:55;23.40;94.40
15676;DHT22;7938;47.666;9.434;2023-06-19T09:10:23;23.40;94.60
15676;DHT22;7938;47.666;9.434;2023-06-19T09:12:59;23.40;94.50
15676;DHT22;7938;47.666;9.434;2023-06-19T09:15:30;23.70;94.50
15676;DHT22;7938;47.666;9.434;2023-06-19T09:18:02;23.90;92.70
15676;DHT22;7938;47.666;9.434;2023-06-19T09:20:29;24.00;93.30
15676;DHT22;7938;47.666;9.434;2023-06-19T09:22:57;24.00;93.80
15676;DHT22;7938;47.666;9.434;2023-06-19T09:25:24;24.10;93.60
15676;DHT22;7938;47.666;9.434;2023-06-19T09:27:52;24.40;92.20
15676;DHT22;7938;47.666;9.434;2023-06-19T09:30:21;24.40;92.30
15676;DHT22;7938;47.666;9.434;2023-06-19T09:32:48;24.50;92.20
15676;DHT22;7938;47.666;9.434;2023-06-19T09:35:15;24.50;92.50
15676;DHT22;7938;47.666;9.434;2023-06-19T09:37:42;24.50;92.70
15676;DHT22;7938;47.666;9.434;2023-06-19T09:40:12;24.50;94.10
15676;DHT22;7938;47.666;9.434;2023-06-19T09:42:41;24.70;92.50
15676;DHT22;7938;47.666;9.434;2023-06-19T09:45:10;24.90;93.30
15676;DHT22;7938;47.666;9.434;2023-06-19T09:47:43;25.10;91.30
15676;DHT22;7938;47.666;9.434;2023-06-19T09:50:12;25.10;91.50
15676;DHT22;7938;47.666;9.434;2023-06-19T09:52:41;25.30;91.50
15676;DHT22;7938;47.666;9.434;2023-06-19T09:55:08;25.60;90.60
15676;DHT22;7938;47.666;9.434;2023-06-19T09:57:39;25.80;89.40
15676;DHT22;7938;47.666;9.434;2023-06-19T10:00:09;25.80;90.00
15676;DHT22;7938;47.666;9.434;2023-06-19T10:02:40;25.70;87.30
15676;DHT22;7938;47.666;9.434;2023-06-19T10:05:07;25.90;85.10
15676;DHT22;7938;47.666;9.434;2023-06-19T10:07:38;26.10;84.00
15676;DHT22;7938;47.666;9.434;2023-06-19T10:10:09;26.10;84.50
15676;DHT22;7938;47.666;9.434;2023-06-19T10:12:40;26.30;83.60
15676;DHT22;7938;47.666;9.434;2023-06-19T10:15:16;26.40;83.00
15676;DHT22;7938;47.666;9.434;2023-06-19T10:17:47;26.50;79.80
15676;DHT22;7938;47.666;9.434;2023-06-19T10:20:25;26.50;80.80
15676;DHT22;7938;47.666;9.434;2023-06-19T10:22:57;26.20;82.70
15676;DHT22;7938;47.666;9.434;2023-06-19T10:25:27;25.70;83.70
15676;DHT22;7938;47.666;9.434;2023-06-19T10:27:54;25.50;84.80
15676;DHT22;7938;47.666;9.434;2023-06-19T10:30:21;25.70;85.60
15676;DHT22;7938;47.666;9.434;2023-06-19T10:32:49;25.80;84.90
15676;DHT22;7938;47.666;9.434;2023-06-19T10:35:17;26.00;85.90
15676;DHT22;7938;47.666;9.434;2023-06-19T10:37:47;26.90;84.20
15676;DHT22;7938;47.666;9.434;2023-06-19T10:40:14;27.00;85.40
15676;DHT22;7938;47.666;9.434;2023-06-19T10:42:41;27.30;85.40
15676;DHT22;7938;47.666;9.434;2023-06-19T10:45:10;27.60;84.60
15676;DHT22;7938;47.666;9.434;2023-06-19T10:47:39;27.60;84.40
15676;DHT22;7938;47.666;9.434;2023-06-19T10:50:11;27.80;82.90
15676;DHT22;7938;47.666;9.434;2023-06-19T10:52:42;27.90;79.50
15676;DHT22;7938;47.666;9.434;2023-06-19T10:55:11;28.40;81.90
15676;DHT22;7938;47.666;9.434;2023-06-19T10:57:38;28.30;78.00
15676;DHT22;7938;47.666;9.434;2023-06-19T11:00:06;27.90;80.50
15676;DHT22;7938;47.666;9.434;2023-06-19T11:02:39;27.60;80.00
15676;DHT22;7938;47.666;9.434;2023-06-19T11:05:10;27.40;79.90
15676;DHT22;7938;47.666;9.434;2023-06-19T11:07:37;27.20;82.50
15676;DHT22;7938;47.666;9.434;2023-06-19T11:10:06;27.20;83.00
15676;DHT22;7938;47.666;9.434;2023-06-19T11:12:33;27.40;81.60
15676;DHT22;7938;47.666;9.434;2023-06-19T11:15:03;27.70;82.10
15676;DHT22;7938;47.666;9.434;2023-06-19T11:17:32;27.60;82.20
15676;DHT22;7938;47.666;9.434;2023-06-19T11:19:58;27.60;80.90
15676;DHT22;7938;47.666;9.434;2023-06-19T11:22:38;27.60;82.40
15676;DHT22;7938;47.666;9.434;2023-06-19T11:25:07;27.60;82.50
15676;DHT22;7938;47.666;9.434;2023-06-19T11:27:37;27.90;81.00
15676;DHT22;7938;47.666;9.434;2023-06-19T11:30:06;28.00;80.00
15676;DHT22;7938;47.666;9.434;2023-06-19T11:32:35;28.20;81.10
15676;DHT22;7938;47.666;9.434;2023-06-19T11:35:09;28.00;80.90
15676;DHT22;7938;47.666;9.434;2023-06-19T11:37:40;28.40;80.00
15676;DHT22;7938;47.666;9.434;2023-06-19T11:40:08;28.80;80.20
15676;DHT22;7938;47.666;9.434;2023-06-19T11:42:47;29.10;79.20
15676;DHT22;7938;47.666;9.434;2023-06-19T11:45:15;29.30;78.60
15676;DHT22;7938;47.666;9.434;2023-06-19T11:47:44;29.00;77.90
15676;DHT22;7938;47.666;9.434;2023-06-19T11:50:12;29.10;78.00
15676;DHT22;7938;47.666;9.434;2023-06-19T11:52:41;29.20;77.20
15676;DHT22;7938;47.666;9.434;2023-06-19T11:55:09;28.80;79.80
15676;DHT22;7938;47.666;9.434;2023-06-19T11:57:36;28.80;77.10
15676;DHT22;7938;47.666;9.434;2023-06-19T12:00:14;28.80;76.60
15676;DHT22;7938;47.666;9.434;2023-06-19T12:02:41;28.70;74.70
15676;DHT22;7938;47.666;9.434;2023-06-19T12:05:08;28.60;78.80
15676;DHT22;7938;47.666;9.434;2023-06-19T12:07:36;28.70;77.60
15676;DHT22;7938;47.666;9.434;2023-06-19T12:10:06;28.70;76.70
15676;DHT22;7938;47.666;9.434;2023-06-19T12:12:38;28.70;75.30
15676;DHT22;7938;47.666;9.434;2023-06-19T12:15:08;28.60;76.90
15676;DHT22;7938;47.666;9.434;2023-06-19T12:17:35;28.70;79.50
15676;DHT22;7938;47.666;9.434;2023-06-19T12:20:04;28.50;79.80
15676;DHT22;7938;47.666;9.434;2023-06-19T12:22:32;28.40;80.70
15676;DHT22;7938;47.666;9.434;2023-06-19T12:25:00;28.60;79.30
15676;DHT22;7938;47.666;9.434;2023-06-19T12:27:29;29.10;75.80
15676;DHT22;7938;47.666;9.434;2023-06-19T12:29:57;29.30;75.30
15676;DHT22;7938;47.666;9.434;2023-06-19T12:32:25;29.40;75.70
15676;DHT22;7938;47.666;9.434;2023-06-19T12:34:53;29.60;78.50
15676;DHT22;7938;47.666;9.434;2023-06-19T12:37:21;29.70;79.40
15676;DHT22;7938;47.666;9.434;2023-06-19T12:39:50;30.30;76.30
15676;DHT22;7938;47.666;9.434;2023-06-19T12:42:18;30.30;74.10
15676;DHT22;7938;47.666;9.434;2023-06-19T12:44:48;30.20;75.00
15676;DHT22;7938;47.666;9.434;2023-06-19T12:47:15;30.50;71.30
15676;DHT22;7938;47.666;9.434;2023-06-19T12:49:43;30.50;71.30
15676;DHT22;7938;47.666;9.434;2023-06-19T12:52:12;30.70;73.50
15676;DHT22;7938;47.666;9.434;2023-06-19T12:54:39;30.90;71.60
15676;DHT22;7938;47.666;9.434;2023-06-19T12:57:07;30.70;71.90
15676;DHT22;7938;47.666;9.434;2023-06-19T12:59:34;30.70;71.80
15676;DHT22;7938;47.666;9.434;2023-06-19T13:02:03;30.50;73.40
15676;DHT22;7938;47.666;9.434;2023-06-19T13:04:31;30.70;71.00
15676;DHT22;7938;47.666;9.434;2023-06-19T13:06:59;30.80;71.10
15676;DHT22;7938;47.666;9.434;2023-06-19T13:09:26;30.80;71.90
15676;DHT22;7938;47.666;9.434;2023-06-19T13:11:53;31.20;71.30
15676;DHT22;7938;47.666;9.434;2023-06-19T13:14:20;31.40;69.80
15676;DHT22;7938;47.666;9.434;2023-06-19T13:16:48;31.60;68.40
15676;DHT22;7938;47.666;9.434;2023-06-19T13:19:16;31.60;69.20
15676;DHT22;7938;47.666;9.434;2023-06-19T13:21:44;31.90;65.50
15676;DHT22;7938;47.666;9.434;2023-06-19T13:24:11;31.70;66.60
15676;DHT22;7938;47.666;9.434;2023-06-19T13:26:39;32.00;67.60
15676;DHT22;7938;47.666;9.434;2023-06-19T13:29:06;31.50;64.70
15676;DHT22;7938;47.666;9.434;2023-06-19T13:31:33;31.30;69.90
15676;DHT22;7938;47.666;9.434;2023-06-19T13:34:00;31.80;66.50
15676;DHT22;7938;47.666;9.434;2023-06-19T13:36:28;31.80;69.10
15676;DHT22;7938;47.666;9.434;2023-06-19T13:38:55;32.30;64.40
15676;DHT22;7938;47.666;9.434;2023-06-19T13:41:22;32.40;67.70
15676;DHT22;7938;47.666;9.434;2023-06-19T13:43:50;32.60;65.00
15676;DHT22;7938;47.666;9.434;2023-06-19T13:46:19;32.20;66.10
15676;DHT22;7938;47.666;9.434;2023-06-19T13:48:47;32.30;66.60
15676;DHT22;7938;47.666;9.434;2023-06-19T13:51:16;32.90;65.00
15676;DHT22;7938;47.666;9.434;2023-06-19T13:53:45;33.60;65.50
15676;DHT22;7938;47.666;9.434;2023-06-19T13:56:12;34.50;62.50
15676;DHT22;7938;47.666;9.434;2023-06-19T13:58:40;34.80;60.00
15676;DHT22;7938;47.666;9.434;2023-06-19T14:01:07;35.30;58.40
15676;DHT22;7938;47.666;9.434;2023-06-19T14:03:36;34.90;59.00
15676;DHT22;7938;47.666;9.434;2023-06-19T14:06:04;36.20;56.60
15676;DHT22;7938;47.666;9.434;2023-06-19T14:08:31;35.40;58.20
15676;DHT22;7938;47.666;9.434;2023-06-19T14:10:59;35.00;59.50
15676;DHT22;7938;47.666;9.434;2023-06-19T14:13:27;35.40;58.80
15676;DHT22;7938;47.666;9.434;2023-06-19T14:15:54;36.10;57.90
15676;DHT22;7938;47.666;9.434;2023-06-19T14:18:21;36.70;56.20
15676;DHT22;7938;47.666;9.434;2023-06-19T14:20:49;37.40;54.90
15676;DHT22;7938;47.666;9.434;2023-06-19T14:23:16;38.80;51.90
15676;DHT22;7938;47.666;9.434;2023-06-19T14:25:43;39.30;51.00
15676;DHT22;7938;47.666;9.434;2023-06-19T14:28:12;39.10;52.60
15676;DHT22;7938;47.666;9.434;2023-06-19T14:30:41;37.60;55.70
15676;DHT22;7938;47.666;9.434;2023-06-19T14:33:08;37.50;56.00
15676;DHT22;7938;47.666;9.434;2023-06-19T14:35:41;36.90;57.20
15676;DHT22;7938;47.666;9.434;2023-06-19T14:38:12;37.00;56.40
15676;DHT22;7938;47.666;9.434;2023-06-19T14:40:40;37.10;57.30
15676;DHT22;7938;47.666;9.434;2023-06-19T14:43:07;36.40;54.90
15676;DHT22;7938;47.666;9.434;2023-06-19T14:45:36;36.00;55.90
15676;DHT22;7938;47.666;9.434;2023-06-19T14:48:05;35.60;57.00
15676;DHT22;7938;47.666;9.434;2023-06-19T14:50:32;35.40;58.10
15676;DHT22;7938;47.666;9.434;2023-06-19T14:52:59;35.10;60.40
15676;DHT22;7938;47.666;9.434;2023-06-19T14:55:27;35.30;58.60
15676;DHT22;7938;47.666;9.434;2023-06-19T14:57:54;34.50;59.60
15676;DHT22;7938;47.666;9.434;2023-06-19T15:00:22;35.60;58.60
15676;DHT22;7938;47.666;9.434;2023-06-19T15:02:50;36.20;55.40
15676;DHT22;7938;47.666;9.434;2023-06-19T15:05:18;37.10;56.20
15676;DHT22;7938;47.666;9.434;2023-06-19T15:07:44;38.70;55.20
15676;DHT22;7938;47.666;9.434;2023-06-19T15:10:12;38.40;51.70
15676;DHT22;7938;47.666;9.434;2023-06-19T15:12:40;39.10;52.30
15676;DHT22;7938;47.666;9.434;2023-06-19T15:15:09;39.40;52.10
15676;DHT22;7938;47.666;9.434;2023-06-19T15:17:36;40.40;50.20
15676;DHT22;7938;47.666;9.434;2023-06-19T15:20:06;39.90;48.30
15676;DHT22;7938;47.666;9.434;2023-06-19T15:22:34;39.50;50.60
15676;DHT22;7938;47.666;9.434;2023-06-19T15:25:03;39.70;50.60
15676;DHT22;7938;47.666;9.434;2023-06-19T15:27:30;40.40;50.40
15676;DHT22;7938;47.666;9.434;2023-06-19T15:29:58;38.40;50.80
15676;DHT22;7938;47.666;9.434;2023-06-19T15:32:25;38.40;50.40
15676;DHT22;7938;47.666;9.434;2023-06-19T15:34:53;36.60;51.90
15676;DHT22;7938;47.666;9.434;2023-06-19T15:37:22;35.10;54.40
15676;DHT22;7938;47.666;9.434;2023-06-19T15:39:50;34.70;54.40
15676;DHT22;7938;47.666;9.434;2023-06-19T15:42:20;34.00;56.90
15676;DHT22;7938;47.666;9.434;2023-06-19T15:44:48;33.10;58.60
15676;DHT22;7938;47.666;9.434;2023-06-19T15:47:16;32.40;60.30
15676;DHT22;7938;47.666;9.434;2023-06-19T15:49:44;32.30;61.20
15676;DHT22;7938;47.666;9.434;2023-06-19T15:52:11;31.90;61.80
15676;DHT22;7938;47.666;9.434;2023-06-19T15:54:40;31.30;63.10
15676;DHT22;7938;47.666;9.434;2023-06-19T15:57:08;30.50;66.40
15676;DHT22;7938;47.666;9.434;2023-06-19T15:59:38;30.40;66.70
15676;DHT22;7938;47.666;9.434;2023-06-19T16:02:05;30.00;68.00
15676;DHT22;7938;47.666;9.434;2023-06-19T16:04:32;29.70;69.40
15676;DHT22;7938;47.666;9.434;2023-06-19T16:06:59;29.00;72.30
15676;DHT22;7938;47.666;9.434;2023-06-19T16:09:28;29.00;72.90
15676;DHT22;7938;47.666;9.434;2023-06-19T16:11:56;29.00;74.60
15676;DHT22;7938;47.666;9.434;2023-06-19T16:14:23;28.80;75.20
15676;DHT22;7938;47.666;9.434;2023-06-19T16:16:50;28.70;75.90
15676;DHT22;7938;47.666;9.434;2023-06-19T16:19:17;28.60;75.70
15676;DHT22;7938;47.666;9.434;2023-06-19T16:21:45;28.50;77.20
15676;DHT22;7938;47.666;9.434;2023-06-19T16:24:12;28.40;76.40
15676;DHT22;7938;47.666;9.434;2023-06-19T16:26:39;28.50;77.30
15676;DHT22;7938;47.666;9.434;2023-06-19T16:29:07;28.50;78.10
15676;DHT22;7938;47.666;9.434;2023-06-19T16:31:34;28.60;77.00
15676;DHT22;7938;47.666;9.434;2023-06-19T16:34:01;28.70;75.40
15676;DHT22;7938;47.666;9.434;2023-06-19T16:36:28;28.80;74.60
15676;DHT22;7938;47.666;9.434;2023-06-19T16:38:55;28.80;74.30
15676;DHT22;7938;47.666;9.434;2023-06-19T16:41:22;28.70;75.60
15676;DHT22;7938;47.666;9.434;2023-06-19T16:43:50;28.70;74.30
15676;DHT22;7938;47.666;9.434;2023-06-19T16:46:19;28.70;73.70
15676;DHT22;7938;47.666;9.434;2023-06-19T16:48:46;28.80;73.10
15676;DHT22;7938;47.666;9.434;2023-06-19T16:51:13;29.10;73.30
15676;DHT22;7938;47.666;9.434;2023-06-19T16:53:40;29.20;73.50
15676;DHT22;7938;47.666;9.434;2023-06-19T16:56:07;29.50;73.40
15676;DHT22;7938;47.666;9.434;2023-06-19T16:58:34;29.80;72.20
15676;DHT22;7938;47.666;9.434;2023-06-19T17:01:01;30.10;72.30
15676;DHT22;7938;47.666;9.434;2023-06-19T17:03:29;30.30;70.90
15676;DHT22;7938;47.666;9.434;2023-06-19T17:05:56;30.20;72.30
15676;DHT22;7938;47.666;9.434;2023-06-19T17:08:24;29.80;70.10
15676;DHT22;7938;47.666;9.434;2023-06-19T17:10:51;29.70;71.00
15676;DHT22;7938;47.666;9.434;2023-06-19T17:13:18;29.70;72.90
15676;DHT22;7938;47.666;9.434;2023-06-19T17:15:45;29.40;71.70
15676;DHT22;7938;47.666;9.434;2023-06-19T17:18:13;29.50;71.20
15676;DHT22;7938;47.666;9.434;2023-06-19T17:20:41;29.50;71.90
15676;DHT22;7938;47.666;9.434;2023-06-19T17:23:09;29.50;71.80
15676;DHT22;7938;47.666;9.434;2023-06-19T17:25:35;29.50;73.70
15676;DHT22;7938;47.666;9.434;2023-06-19T17:28:03;30.30;70.10
15676;DHT22;7938;47.666;9.434;2023-06-19T17:30:30;30.60;68.90
15676;DHT22;7938;47.666;9.434;2023-06-19T17:32:57;30.50;67.40
15676;DHT22;7938;47.666;9.434;2023-06-19T17:35:24;30.10;67.90
15676;DHT22;7938;47.666;9.434;2023-06-19T17:37:53;29.00;77.30
15676;DHT22;7938;47.666;9.434;2023-06-19T17:40:20;28.70;80.00
15676;DHT22;7938;47.666;9.434;2023-06-19T17:42:47;28.20;82.40
15676;DHT22;7938;47.666;9.434;2023-06-19T17:45:14;28.30;81.80
15676;DHT22;7938;47.666;9.434;2023-06-19T17:47:41;28.60;81.60
15676;DHT22;7938;47.666;9.434;2023-06-19T17:50:10;28.70;81.50
15676;DHT22;7938;47.666;9.434;2023-06-19T17:52:38;29.10;80.70
15676;DHT22;7938;47.666;9.434;2023-06-19T17:55:08;28.80;81.80
15676;DHT22;7938;47.666;9.434;2023-06-19T17:57:35;28.80;80.00
15676;DHT22;7938;47.666;9.434;2023-06-19T18:00:04;28.70;80.80
15676;DHT22;7938;47.666;9.434;2023-06-19T18:02:31;28.50;82.30
15676;DHT22;7938;47.666;9.434;2023-06-19T18:04:59;28.10;84.20
15676;DHT22;7938;47.666;9.434;2023-06-19T18:07:26;27.30;85.20
15676;DHT22;7938;47.666;9.434;2023-06-19T18:09:54;27.20;85.90
15676;DHT22;7938;47.666;9.434;2023-06-19T18:12:22;26.70;89.00
15676;DHT22;7938;47.666;9.434;2023-06-19T18:14:49;26.40;90.50
15676;DHT22;7938;47.666;9.434;2023-06-19T18:17:16;26.10;91.40
15676;DHT22;7938;47.666;9.434;2023-06-19T18:19:44;26.00;91.70
15676;DHT22;7938;47.666;9.434;2023-06-19T18:22:11;25.70;92.40
15676;DHT22;7938;47.666;9.434;2023-06-19T18:24:38;25.40;92.60
15676;DHT22;7938;47.666;9.434;2023-06-19T18:27:05;25.30;92.80
15676;DHT22;7938;47.666;9.434;2023-06-19T18:29:34;25.20;93.00
15676;DHT22;7938;47.666;9.434;2023-06-19T18:32:01;25.10;91.60
15676;DHT22;7938;47.666;9.434;2023-06-19T18:34:28;25.00;90.00
15676;DHT22;7938;47.666;9.434;2023-06-19T18:36:57;24.80;90.30
15676;DHT22;7938;47.666;9.434;2023-06-19T18:39:24;24.70;89.60
15676;DHT22;7938;47.666;9.434;2023-06-19T18:41:51;24.70;90.50
15676;DHT22;7938;47.666;9.434;2023-06-19T18:44:20;24.30;91.70
15676;DHT22;7938;47.666;9.434;2023-06-19T18:46:48;24.10;91.90
15676;DHT22;7938;47.666;9.434;2023-06-19T18:49:17;23.90;91.70
15676;DHT22;7938;47.666;9.434;2023-06-19T18:51:45;23.70;92.00
15676;DHT22;7938;47.666;9.434;2023-06-19T18:54:13;23.50;92.20
15676;DHT22;7938;47.666;9.434;2023-06-19T18:56:42;23.50;92.20
15676;DHT22;7938;47.666;9.434;2023-06-19T18:59:09;23.30;92.20
15676;DHT22;7938;47.666;9.434;2023-06-19T19:01:38;23.20;92.40
15676;DHT22;7938;47.666;9.434;2023-06-19T19:04:11;23.10;92.50
15676;DHT22;7938;47.666;9.434;2023-06-19T19:06:39;23.00;92.70
15676;DHT22;7938;47.666;9.434;2023-06-19T19:09:08;22.90;92.20
15676;DHT22;7938;47.666;9.434;2023-06-19T19:11:36;22.80;92.60
15676;DHT22;7938;47.666;9.434;2023-06-19T19:14:05;22.70;92.70
15676;DHT22;7938;47.666;9.434;2023-06-19T19:16:34;22.60;93.10
15676;DHT22;7938;47.666;9.434;2023-06-19T19:19:03;22.40;92.60
15676;DHT22;7938;47.666;9.434;2023-06-19T19:21:33;22.30;93.00
15676;DHT22;7938;47.666;9.434;2023-06-19T19:24:01;22.30;93.00
15676;DHT22;7938;47.666;9.434;2023-06-19T19:26:29;22.20;92.80
15676;DHT22;7938;47.666;9.434;2023-06-19T19:28:58;22.10;92.90
15676;DHT22;7938;47.666;9.434;2023-06-19T19:31:26;22.10;92.90
15676;DHT22;7938;47.666;9.434;2023-06-19T19:33:53;22.10;92.20
15676;DHT22;7938;47.666;9.434;2023-06-19T19:36:20;22.10;92.10
15676;DHT22;7938;47.666;9.434;2023-06-19T19:38:50;22.10;91.30
15676;DHT22;7938;47.666;9.434;2023-06-19T19:41:17;22.00;91.60
15676;DHT22;7938;47.666;9.434;2023-06-19T19:43:45;22.00;91.50
15676;DHT22;7938;47.666;9.434;2023-06-19T19:46:12;21.90;91.60
15676;DHT22;7938;47.666;9.434;2023-06-19T19:48:39;21.90;91.70
15676;DHT22;7938;47.666;9.434;2023-06-19T19:51:06;21.80;92.00
15676;DHT22;7938;47.666;9.434;2023-06-19T19:53:34;21.70;92.20
15676;DHT22;7938;47.666;9.434;2023-06-19T19:56:03;21.60;92.30